sensor_id;sensor_type;location;lat;lon;timestamp;pressure;altitude;pressure_sealevel;temperature;humidity
19676;BME280;39539;52.202;9.876;2022-12-18T00:00:57;102061.09;;;-8.35;100.00
19676;BME280;39539;52.202;9.876;2022-12-18T00:03:22;102065.72;;;-8.43;100.00
19676;BME280;39539;52.202;9.876;2022-12-18T00:05:51;102065.16;;;-8.53;100.00
19676;BME280;39539;52.202;9.876;2022-12-18T00:08:18;102066.41;;;-8.65;100.00
19676;BME280;39539;52.202;9.876;2022-12-18T00:10:45;102058.06;;;-8.73;100.00
19676;BME280;39539;52.202;9.876;2022-12-18T00:13:11;102047.75;;;-8.73;100.00
19676;BME280;39539;52.202;9.876;2022-12-18T00:15:38;102051.84;;;-8.66;100.00
19676;BME280;39539;52.202;9.876;2022-12-18T00:18:04;102071.91;;;-8.49;100.00
19676;BME280;39539;52.202;9.876;2022-12-18T00:20:30;102068.97;;;-8.65;100.00
19676;BME280;39539;52.202;9.876;2022-12-18T00:22:56;102082.34;;;-8.53;100.00
19676;BME280;39539;52.202;9.876;2022-12-18T00:25:22;102079.03;;;-8.57;100.00
19676;BME280;39539;52.202;9.876;2022-12-18T00:27:47;102081.47;;;-8.52;100.00
19676;BME280;39539;52.202;9.876;2022-12-18T00:30:13;102057.94;;;-8.68;100.00
19676;BME280;39539;52.202;9.876;2022-12-18T00:32:39;102073.19;;;-8.62;100.00
19676;BME280;39539;52.202;9.876;2022-12-18T00:35:05;102095.38;;;-8.58;100.00
19676;BME280;39539;52.202;9.876;2022-12-18T00:37:33;102077.31;;;-8.56;100.00
19676;BME280;39539;52.202;9.876;2022-12-18T00:39:58;102060.94;;;-8.55;100.00
19676;BME280;39539;52.202;9.876;2022-12-18T00:42:24;102080.47;;;-8.48;100.00
19676;BME280;39539;52.202;9.876;2022-12-18T00:45:08;102088.44;;;-8.56;100.00
19676;BME280;39539;52.202;9.876;2022-12-18T00:47:33;102088.22;;;-8.48;100.00
19676;BME280;39539;52.202;9.876;2022-12-18T00:49:59;102096.31;;;-8.34;100.00
19676;BME280;39539;52.202;9.876;2022-12-18T00:52:24;102093.97;;;-8.40;100.00
19676;BME280;39539;52.202;9.876;2022-12-18T00:54:49;102108.25;;;-8.31;100.00
19676;BME280;39539;52.202;9.876;2022-12-18T00:57:15;102103.94;;;-8.31;100.00
19676;BME280;39539;52.202;9.876;2022-12-18T00:59:40;102109.09;;;-8.31;100.00
19676;BME280;39539;52.202;9.876;2022-12-18T01:02:05;102086.25;;;-8.40;100.00
19676;BME280;39539;52.202;9.876;2022-12-18T01:04:32;102096.31;;;-8.34;100.00
19676;BME280;39539;52.202;9.876;2022-12-18T01:06:57;102100.09;;;-8.18;100.00
19676;BME280;39539;52.202;9.876;2022-12-18T01:09:23;102096.09;;;-8.28;100.00
19676;BME280;39539;52.202;9.876;2022-12-18T01:11:48;102102.75;;;-8.21;100.00
19676;BME280;39539;52.202;9.876;2022-12-18T01:14:14;102120.59;;;-8.15;100.00
19676;BME280;39539;52.202;9.876;2022-12-18T01:16:39;102077.09;;;-8.50;100.00
19676;BME280;39539;52.202;9.876;2022-12-18T01:19:04;102118.16;;;-8.19;100.00
19676;BME280;39539;52.202;9.876;2022-12-18T01:21:30;102124.41;;;-8.00;100.00
19676;BME280;39539;52.202;9.876;2022-12-18T01:23:56;102127.53;;;-7.65;100.00
19676;BME280;39539;52.202;9.876;2022-12-18T01:26:21;102133.41;;;-7.61;100.00
19676;BME280;39539;52.202;9.876;2022-12-18T01:28:47;102127.59;;;-7.66;100.00
19676;BME280;39539;52.202;9.876;2022-12-18T01:31:21;102122.72;;;-7.76;100.00
19676;BME280;39539;52.202;9.876;2022-12-18T01:33:48;102124.44;;;-7.75;100.00
19676;BME280;39539;52.202;9.876;2022-12-18T01:36:23;102123.94;;;-7.86;100.00
19676;BME280;39539;52.202;9.876;2022-12-18T01:38:49;102119.66;;;-7.87;100.00
19676;BME280;39539;52.202;9.876;2022-12-18T01:41:16;102134.97;;;-7.81;100.00
19676;BME280;39539;52.202;9.876;2022-12-18T01:43:54;102131.47;;;-7.80;100.00
19676;BME280;39539;52.202;9.876;2022-12-18T01:46:21;102132.41;;;-7.82;100.00
19676;BME280;39539;52.202;9.876;2022-12-18T01:48:50;102136.00;;;-7.86;100.00
19676;BME280;39539;52.202;9.876;2022-12-18T01:51:16;102126.09;;;-7.99;100.00
19676;BME280;39539;52.202;9.876;2022-12-18T01:53:43;102142.22;;;-7.92;100.00
19676;BME280;39539;52.202;9.876;2022-12-18T01:56:12;102138.66;;;-8.15;100.00
19676;BME280;39539;52.202;9.876;2022-12-18T02:01:11;102114.69;;;-8.43;100.00
19676;BME280;39539;52.202;9.876;2022-12-18T02:03:37;102142.28;;;-8.20;100.00
19676;BME280;39539;52.202;9.876;2022-12-18T02:06:16;102148.91;;;-7.86;100.00
19676;BME280;39539;52.202;9.876;2022-12-18T02:14:36;102151.34;;;-8.08;100.00
19676;BME280;39539;52.202;9.876;2022-12-18T02:17:11;102138.28;;;-8.29;100.00
19676;BME280;39539;52.202;9.876;2022-12-18T02:19:41;102142.53;;;-8.28;100.00
19676;BME280;39539;52.202;9.876;2022-12-18T02:24:45;102135.16;;;-8.12;100.00
19676;BME280;39539;52.202;9.876;2022-12-18T02:27:18;102151.63;;;-7.91;100.00
19676;BME280;39539;52.202;9.876;2022-12-18T02:29:50;102150.03;;;-7.69;100.00
19676;BME280;39539;52.202;9.876;2022-12-18T02:32:26;102157.13;;;-7.50;100.00
19676;BME280;39539;52.202;9.876;2022-12-18T02:34:55;102153.78;;;-7.29;100.00
19676;BME280;39539;52.202;9.876;2022-12-18T02:37:23;102151.19;;;-7.05;100.00
19676;BME280;39539;52.202;9.876;2022-12-18T02:39:53;102148.84;;;-6.88;100.00
19676;BME280;39539;52.202;9.876;2022-12-18T02:42:20;102150.88;;;-6.74;100.00
19676;BME280;39539;52.202;9.876;2022-12-18T02:44:50;102159.19;;;-6.66;100.00
19676;BME280;39539;52.202;9.876;2022-12-18T02:47:22;102148.63;;;-6.60;100.00
19676;BME280;39539;52.202;9.876;2022-12-18T02:57:58;102146.25;;;-6.42;100.00
19676;BME280;39539;52.202;9.876;2022-12-18T03:00:48;102146.59;;;-6.73;100.00
19676;BME280;39539;52.202;9.876;2022-12-18T03:03:37;102141.50;;;-6.98;100.00
19676;BME280;39539;52.202;9.876;2022-12-18T03:06:08;102143.34;;;-7.26;100.00
19676;BME280;39539;52.202;9.876;2022-12-18T03:08:39;102140.06;;;-7.31;100.00
19676;BME280;39539;52.202;9.876;2022-12-18T03:11:08;102146.59;;;-7.44;100.00
19676;BME280;39539;52.202;9.876;2022-12-18T03:13:37;102136.75;;;-7.58;100.00
19676;BME280;39539;52.202;9.876;2022-12-18T03:16:07;102132.66;;;-7.63;100.00
19676;BME280;39539;52.202;9.876;2022-12-18T03:18:50;102129.53;;;-7.73;100.00
19676;BME280;39539;52.202;9.876;2022-12-18T03:21:19;102126.94;;;-7.98;100.00
19676;BME280;39539;52.202;9.876;2022-12-18T03:23:49;102133.31;;;-8.08;100.00
19676;BME280;39539;52.202;9.876;2022-12-18T03:26:19;102117.44;;;-8.23;100.00
19676;BME280;39539;52.202;9.876;2022-12-18T03:28:53;102114.66;;;-8.17;100.00
19676;BME280;39539;52.202;9.876;2022-12-18T03:31:23;102123.38;;;-7.94;100.00
19676;BME280;39539;52.202;9.876;2022-12-18T03:33:56;102121.16;;;-7.80;100.00
19676;BME280;39539;52.202;9.876;2022-12-18T03:36:23;102136.91;;;-7.62;100.00
19676;BME280;39539;52.202;9.876;2022-12-18T03:38:49;102133.00;;;-7.49;100.00
19676;BME280;39539;52.202;9.876;2022-12-18T03:43:54;102139.56;;;-7.17;100.00
19676;BME280;39539;52.202;9.876;2022-12-18T03:49:11;102146.94;;;-7.06;100.00
19676;BME280;39539;52.202;9.876;2022-12-18T03:51:51;102148.06;;;-6.90;100.00
19676;BME280;39539;52.202;9.876;2022-12-18T03:54:18;102141.19;;;-6.67;100.00
19676;BME280;39539;52.202;9.876;2022-12-18T03:56:57;102135.28;;;-6.49;100.00
19676;BME280;39539;52.202;9.876;2022-12-18T03:59:24;102122.19;;;-6.44;100.00
19676;BME280;39539;52.202;9.876;2022-12-18T04:01:52;102136.78;;;-6.21;100.00
19676;BME280;39539;52.202;9.876;2022-12-18T04:04:20;102140.69;;;-6.11;100.00
19676;BME280;39539;52.202;9.876;2022-12-18T04:06:47;102148.34;;;-6.10;100.00
19676;BME280;39539;52.202;9.876;2022-12-18T04:09:14;102142.34;;;-6.10;100.00
19676;BME280;39539;52.202;9.876;2022-12-18T04:11:41;102146.56;;;-6.07;100.00
19676;BME280;39539;52.202;9.876;2022-12-18T04:14:09;102152.31;;;-6.01;100.00
19676;BME280;39539;52.202;9.876;2022-12-18T04:16:34;102161.53;;;-5.94;100.00
19676;BME280;39539;52.202;9.876;2022-12-18T04:18:59;102160.53;;;-5.91;100.00
19676;BME280;39539;52.202;9.876;2022-12-18T04:21:26;102157.81;;;-5.88;100.00
19676;BME280;39539;52.202;9.876;2022-12-18T04:23:52;102160.44;;;-5.90;100.00
19676;BME280;39539;52.202;9.876;2022-12-18T04:26:17;102167.44;;;-5.92;100.00
19676;BME280;39539;52.202;9.876;2022-12-18T04:28:42;102156.59;;;-6.00;100.00
19676;BME280;39539;52.202;9.876;2022-12-18T04:31:08;102134.97;;;-6.19;100.00
19676;BME280;39539;52.202;9.876;2022-12-18T04:33:33;102150.28;;;-6.15;100.00
19676;BME280;39539;52.202;9.876;2022-12-18T04:35:58;102149.44;;;-6.15;100.00
19676;BME280;39539;52.202;9.876;2022-12-18T04:38:24;102153.44;;;-6.28;100.00
19676;BME280;39539;52.202;9.876;2022-12-18T04:40:49;102140.69;;;-6.33;100.00
19676;BME280;39539;52.202;9.876;2022-12-18T04:43:14;102132.38;;;-6.19;100.00
19676;BME280;39539;52.202;9.876;2022-12-18T04:45:40;102140.28;;;-6.02;100.00
19676;BME280;39539;52.202;9.876;2022-12-18T04:48:05;102145.84;;;-5.91;100.00
19676;BME280;39539;52.202;9.876;2022-12-18T04:50:31;102138.22;;;-5.94;100.00
19676;BME280;39539;52.202;9.876;2022-12-18T04:52:56;102148.59;;;-5.94;100.00
19676;BME280;39539;52.202;9.876;2022-12-18T04:55:22;102139.63;;;-6.07;100.00
19676;BME280;39539;52.202;9.876;2022-12-18T04:57:50;102142.75;;;-5.99;100.00
19676;BME280;39539;52.202;9.876;2022-12-18T05:00:17;102143.41;;;-5.94;100.00
19676;BME280;39539;52.202;9.876;2022-12-18T05:02:44;102144.13;;;-5.92;100.00
19676;BME280;39539;52.202;9.876;2022-12-18T05:05:10;102146.25;;;-6.00;100.00
19676;BME280;39539;52.202;9.876;2022-12-18T05:07:35;102133.94;;;-6.15;100.00
19676;BME280;39539;52.202;9.876;2022-12-18T05:10:01;102133.66;;;-6.09;100.00
19676;BME280;39539;52.202;9.876;2022-12-18T05:12:26;102142.09;;;-6.04;100.00
19676;BME280;39539;52.202;9.876;2022-12-18T05:14:51;102140.28;;;-6.02;100.00
19676;BME280;39539;52.202;9.876;2022-12-18T05:17:17;102142.88;;;-6.02;100.00
19676;BME280;39539;52.202;9.876;2022-12-18T05:19:43;102141.69;;;-6.15;100.00
19676;BME280;39539;52.202;9.876;2022-12-18T05:22:09;102164.59;;;-6.06;100.00
19676;BME280;39539;52.202;9.876;2022-12-18T05:24:34;102135.97;;;-6.23;100.00
19676;BME280;39539;52.202;9.876;2022-12-18T05:26:59;102158.78;;;-6.11;100.00
19676;BME280;39539;52.202;9.876;2022-12-18T05:29:25;102152.47;;;-6.26;100.00
19676;BME280;39539;52.202;9.876;2022-12-18T05:31:50;102158.59;;;-6.28;100.00
19676;BME280;39539;52.202;9.876;2022-12-18T05:34:16;102156.25;;;-6.35;100.00
19676;BME280;39539;52.202;9.876;2022-12-18T05:36:41;102155.97;;;-6.49;100.00
19676;BME280;39539;52.202;9.876;2022-12-18T05:39:07;102154.28;;;-6.50;100.00
19676;BME280;39539;52.202;9.876;2022-12-18T05:41:32;102166.06;;;-6.43;100.00
19676;BME280;39539;52.202;9.876;2022-12-18T05:43:58;102168.34;;;-6.35;100.00
19676;BME280;39539;52.202;9.876;2022-12-18T05:46:23;102158.84;;;-6.35;100.00
19676;BME280;39539;52.202;9.876;2022-12-18T05:48:49;102168.94;;;-6.28;100.00
19676;BME280;39539;52.202;9.876;2022-12-18T05:51:18;102175.88;;;-6.29;100.00
19676;BME280;39539;52.202;9.876;2022-12-18T05:53:44;102189.59;;;-6.27;100.00
19676;BME280;39539;52.202;9.876;2022-12-18T05:56:14;102161.13;;;-6.49;100.00
19676;BME280;39539;52.202;9.876;2022-12-18T05:58:40;102185.63;;;-6.36;100.00
19676;BME280;39539;52.202;9.876;2022-12-18T06:01:17;102171.13;;;-6.40;100.00
19676;BME280;39539;52.202;9.876;2022-12-18T06:03:43;102187.84;;;-6.26;100.00
19676;BME280;39539;52.202;9.876;2022-12-18T06:06:20;102182.44;;;-6.20;100.00
19676;BME280;39539;52.202;9.876;2022-12-18T06:08:46;102188.09;;;-6.11;100.00
19676;BME280;39539;52.202;9.876;2022-12-18T06:11:12;102186.38;;;-6.12;100.00
19676;BME280;39539;52.202;9.876;2022-12-18T06:13:38;102188.69;;;-6.04;100.00
19676;BME280;39539;52.202;9.876;2022-12-18T06:16:07;102190.31;;;-6.01;100.00
19676;BME280;39539;52.202;9.876;2022-12-18T06:18:33;102177.53;;;-6.06;100.00
19676;BME280;39539;52.202;9.876;2022-12-18T06:20:59;102190.97;;;-5.96;100.00
19676;BME280;39539;52.202;9.876;2022-12-18T06:23:25;102187.91;;;-5.85;100.00
19676;BME280;39539;52.202;9.876;2022-12-18T06:25:51;102184.28;;;-5.81;100.00
19676;BME280;39539;52.202;9.876;2022-12-18T06:28:16;102186.03;;;-5.61;100.00
19676;BME280;39539;52.202;9.876;2022-12-18T06:30:46;102202.28;;;-5.58;100.00
19676;BME280;39539;52.202;9.876;2022-12-18T06:33:15;102186.59;;;-5.55;100.00
19676;BME280;39539;52.202;9.876;2022-12-18T06:35:42;102186.50;;;-5.52;100.00
19676;BME280;39539;52.202;9.876;2022-12-18T06:38:08;102195.56;;;-5.62;100.00
19676;BME280;39539;52.202;9.876;2022-12-18T06:40:33;102188.63;;;-5.61;100.00
19676;BME280;39539;52.202;9.876;2022-12-18T06:42:59;102189.41;;;-5.59;100.00
19676;BME280;39539;52.202;9.876;2022-12-18T06:45:24;102169.78;;;-5.65;100.00
19676;BME280;39539;52.202;9.876;2022-12-18T06:47:50;102186.59;;;-5.55;100.00
19676;BME280;39539;52.202;9.876;2022-12-18T06:50:16;102184.81;;;-5.53;100.00
19676;BME280;39539;52.202;9.876;2022-12-18T06:52:41;102176.50;;;-5.61;100.00
19676;BME280;39539;52.202;9.876;2022-12-18T06:55:09;102191.41;;;-5.46;100.00
19676;BME280;39539;52.202;9.876;2022-12-18T06:57:35;102169.00;;;-5.47;100.00
19676;BME280;39539;52.202;9.876;2022-12-18T07:00:00;102189.06;;;-5.31;100.00
19676;BME280;39539;52.202;9.876;2022-12-18T07:02:25;102197.69;;;-5.31;100.00
19676;BME280;39539;52.202;9.876;2022-12-18T07:04:51;102188.03;;;-5.48;100.00
19676;BME280;39539;52.202;9.876;2022-12-18T07:07:16;102198.66;;;-5.54;100.00
19676;BME280;39539;52.202;9.876;2022-12-18T07:09:42;102194.47;;;-5.56;100.00
19676;BME280;39539;52.202;9.876;2022-12-18T07:12:08;102201.00;;;-5.48;100.00
19676;BME280;39539;52.202;9.876;2022-12-18T07:14:34;102195.69;;;-5.45;100.00
19676;BME280;39539;52.202;9.876;2022-12-18T07:16:59;102191.69;;;-5.52;100.00
19676;BME280;39539;52.202;9.876;2022-12-18T07:19:25;102201.50;;;-5.39;100.00
19676;BME280;39539;52.202;9.876;2022-12-18T07:21:50;102206.66;;;-5.19;100.00
19676;BME280;39539;52.202;9.876;2022-12-18T07:24:16;102215.00;;;-5.12;100.00
19676;BME280;39539;52.202;9.876;2022-12-18T07:26:41;102220.09;;;-5.09;100.00
19676;BME280;39539;52.202;9.876;2022-12-18T07:29:07;102208.00;;;-5.10;100.00
19676;BME280;39539;52.202;9.876;2022-12-18T07:31:32;102222.72;;;-5.11;100.00
19676;BME280;39539;52.202;9.876;2022-12-18T07:33:58;102219.34;;;-5.13;100.00
19676;BME280;39539;52.202;9.876;2022-12-18T07:36:24;102226.75;;;-5.04;100.00
19676;BME280;39539;52.202;9.876;2022-12-18T07:38:49;102216.25;;;-5.01;100.00
19676;BME280;39539;52.202;9.876;2022-12-18T07:41:15;102234.75;;;-4.89;100.00
19676;BME280;39539;52.202;9.876;2022-12-18T07:43:41;102237.59;;;-4.75;100.00
19676;BME280;39539;52.202;9.876;2022-12-18T07:46:08;102226.63;;;-4.82;100.00
19676;BME280;39539;52.202;9.876;2022-12-18T07:48:33;102225.50;;;-4.76;100.00
19676;BME280;39539;52.202;9.876;2022-12-18T07:51:04;102237.50;;;-4.55;100.00
19676;BME280;39539;52.202;9.876;2022-12-18T07:53:31;102238.50;;;-4.57;100.00
19676;BME280;39539;52.202;9.876;2022-12-18T07:55:58;102222.22;;;-4.61;100.00
19676;BME280;39539;52.202;9.876;2022-12-18T07:58:23;102235.13;;;-4.40;100.00
19676;BME280;39539;52.202;9.876;2022-12-18T08:00:49;102215.19;;;-4.40;100.00
19676;BME280;39539;52.202;9.876;2022-12-18T08:03:14;102234.34;;;-4.23;100.00
19676;BME280;39539;52.202;9.876;2022-12-18T08:05:39;102226.06;;;-4.13;100.00
19676;BME280;39539;52.202;9.876;2022-12-18T08:08:05;102224.63;;;-4.01;99.59
19676;BME280;39539;52.202;9.876;2022-12-18T08:10:30;102226.84;;;-3.93;98.86
19676;BME280;39539;52.202;9.876;2022-12-18T08:12:56;102223.03;;;-3.86;98.42
19676;BME280;39539;52.202;9.876;2022-12-18T08:15:21;102232.81;;;-3.74;97.69
19676;BME280;39539;52.202;9.876;2022-12-18T08:17:46;102220.09;;;-3.97;96.58
19676;BME280;39539;52.202;9.876;2022-12-18T08:20:12;102201.56;;;-4.26;96.79
19676;BME280;39539;52.202;9.876;2022-12-18T08:22:40;102216.97;;;-4.04;98.17
19676;BME280;39539;52.202;9.876;2022-12-18T08:25:06;102214.56;;;-3.55;96.97
19676;BME280;39539;52.202;9.876;2022-12-18T08:27:31;102219.50;;;-3.16;93.16
19676;BME280;39539;52.202;9.876;2022-12-18T08:29:57;102221.94;;;-2.47;89.52
19676;BME280;39539;52.202;9.876;2022-12-18T08:32:23;102225.53;;;-2.03;87.03
19676;BME280;39539;52.202;9.876;2022-12-18T08:34:49;102225.78;;;-1.61;83.64
19676;BME280;39539;52.202;9.876;2022-12-18T08:37:14;102206.28;;;-1.25;82.37
19676;BME280;39539;52.202;9.876;2022-12-18T08:39:39;102220.66;;;-1.04;80.22
19676;BME280;39539;52.202;9.876;2022-12-18T08:42:05;102219.25;;;-0.81;79.96
19676;BME280;39539;52.202;9.876;2022-12-18T08:44:49;102218.59;;;-0.84;79.18
19676;BME280;39539;52.202;9.876;2022-12-18T08:47:14;102194.19;;;-1.26;78.63
19676;BME280;39539;52.202;9.876;2022-12-18T08:49:40;102186.28;;;-1.69;81.12
19676;BME280;39539;52.202;9.876;2022-12-18T08:52:06;102194.84;;;-1.67;82.20
19676;BME280;39539;52.202;9.876;2022-12-18T08:54:31;102194.34;;;-1.44;81.26
19676;BME280;39539;52.202;9.876;2022-12-18T08:56:56;102202.19;;;-1.15;80.26
19676;BME280;39539;52.202;9.876;2022-12-18T08:59:22;102203.66;;;-1.11;79.56
19676;BME280;39539;52.202;9.876;2022-12-18T09:01:48;102200.31;;;-0.84;79.36
19676;BME280;39539;52.202;9.876;2022-12-18T09:04:13;102208.03;;;-0.27;76.66
19676;BME280;39539;52.202;9.876;2022-12-18T09:06:39;102211.16;;;0.32;73.66
19676;BME280;39539;52.202;9.876;2022-12-18T09:09:05;102202.84;;;0.13;73.94
19676;BME280;39539;52.202;9.876;2022-12-18T09:11:31;102205.72;;;-0.05;73.97
19676;BME280;39539;52.202;9.876;2022-12-18T09:13:57;102184.16;;;-0.48;74.98
19676;BME280;39539;52.202;9.876;2022-12-18T09:16:25;102180.16;;;-0.68;78.06
19676;BME280;39539;52.202;9.876;2022-12-18T09:18:50;102185.22;;;-0.11;77.11
19676;BME280;39539;52.202;9.876;2022-12-18T09:21:20;102173.38;;;-0.43;75.17
19676;BME280;39539;52.202;9.876;2022-12-18T09:23:50;102172.94;;;-0.23;74.61
19676;BME280;39539;52.202;9.876;2022-12-18T09:26:15;102156.78;;;-0.42;75.22
19676;BME280;39539;52.202;9.876;2022-12-18T09:28:40;102158.03;;;-0.48;75.24
19676;BME280;39539;52.202;9.876;2022-12-18T09:31:07;102157.72;;;-0.43;76.09
19676;BME280;39539;52.202;9.876;2022-12-18T09:33:36;102166.19;;;-0.13;74.37
19676;BME280;39539;52.202;9.876;2022-12-18T09:36:04;102160.53;;;-0.19;74.74
19676;BME280;39539;52.202;9.876;2022-12-18T09:38:30;102156.97;;;-0.18;74.70
19676;BME280;39539;52.202;9.876;2022-12-18T09:41:00;102164.75;;;-0.31;75.19
19676;BME280;39539;52.202;9.876;2022-12-18T09:43:33;102146.97;;;-0.39;74.28
19676;BME280;39539;52.202;9.876;2022-12-18T09:46:07;102154.34;;;-0.46;74.55
19676;BME280;39539;52.202;9.876;2022-12-18T09:48:40;102146.28;;;-0.28;74.19
19676;BME280;39539;52.202;9.876;2022-12-18T09:51:14;102158.97;;;-0.09;73.52
19676;BME280;39539;52.202;9.876;2022-12-18T09:53:44;102164.88;;;0.07;72.84
19676;BME280;39539;52.202;9.876;2022-12-18T09:56:18;102158.41;;;0.00;72.54
19676;BME280;39539;52.202;9.876;2022-12-18T09:59:00;102171.00;;;-0.07;73.36
19676;BME280;39539;52.202;9.876;2022-12-18T10:01:27;102165.56;;;-0.16;72.40
19676;BME280;39539;52.202;9.876;2022-12-18T10:03:54;102165.56;;;-0.16;72.92
19676;BME280;39539;52.202;9.876;2022-12-18T10:09:33;102151.47;;;-0.14;75.46
19676;BME280;39539;52.202;9.876;2022-12-18T10:12:22;102155.47;;;0.05;74.34
19676;BME280;39539;52.202;9.876;2022-12-18T13:01:40;101875.22;;;-0.63;73.72
19676;BME280;39539;52.202;9.876;2022-12-18T13:09:20;101875.41;;;-1.59;94.19
19676;BME280;39539;52.202;9.876;2022-12-18T13:11:46;101885.72;;;-1.43;94.38
19676;BME280;39539;52.202;9.876;2022-12-18T13:14:33;101876.72;;;-1.51;94.87
19676;BME280;39539;52.202;9.876;2022-12-18T13:20:13;101877.16;;;-1.45;93.33
19676;BME280;39539;52.202;9.876;2022-12-18T13:22:46;101863.19;;;-1.44;92.75
19676;BME280;39539;52.202;9.876;2022-12-18T13:25:33;101864.63;;;-1.52;92.60
19676;BME280;39539;52.202;9.876;2022-12-18T13:28:05;101889.56;;;-1.48;92.10
19676;BME280;39539;52.202;9.876;2022-12-18T13:38:44;101900.25;;;-1.39;87.37
19676;BME280;39539;52.202;9.876;2022-12-18T13:41:27;101890.94;;;-1.43;87.01
19676;BME280;39539;52.202;9.876;2022-12-18T13:43:56;101886.13;;;-1.49;86.75
19676;BME280;39539;52.202;9.876;2022-12-18T13:46:48;101878.56;;;-1.53;86.45
19676;BME280;39539;52.202;9.876;2022-12-18T13:49:36;101886.72;;;-1.58;86.73
19676;BME280;39539;52.202;9.876;2022-12-18T13:52:16;101885.59;;;-1.68;87.41
19676;BME280;39539;52.202;9.876;2022-12-18T13:54:49;101892.69;;;-1.70;87.76
19676;BME280;39539;52.202;9.876;2022-12-18T13:57:33;101878.47;;;-1.79;88.45
19676;BME280;39539;52.202;9.876;2022-12-18T14:02:48;101846.41;;;-1.94;89.01
19676;BME280;39539;52.202;9.876;2022-12-18T14:05:40;101867.69;;;-1.87;89.63
19676;BME280;39539;52.202;9.876;2022-12-18T14:08:12;101863.31;;;-2.01;90.57
19676;BME280;39539;52.202;9.876;2022-12-18T14:10:43;101834.53;;;-2.27;91.76
19676;BME280;39539;52.202;9.876;2022-12-18T14:13:13;101858.06;;;-2.14;92.10
19676;BME280;39539;52.202;9.876;2022-12-18T14:15:42;101841.81;;;-2.32;93.37
19676;BME280;39539;52.202;9.876;2022-12-18T14:21:29;101836.50;;;-2.30;94.08
19676;BME280;39539;52.202;9.876;2022-12-18T14:24:05;101837.31;;;-2.30;94.26
19676;BME280;39539;52.202;9.876;2022-12-18T14:26:32;101822.09;;;-2.36;92.84
19676;BME280;39539;52.202;9.876;2022-12-18T14:29:17;101834.63;;;-2.28;93.46
19676;BME280;39539;52.202;9.876;2022-12-18T14:31:43;101817.44;;;-2.31;92.94
19676;BME280;39539;52.202;9.876;2022-12-18T14:34:18;101811.59;;;-2.34;92.37
19676;BME280;39539;52.202;9.876;2022-12-18T14:36:53;101802.28;;;-2.38;91.65
19676;BME280;39539;52.202;9.876;2022-12-18T14:39:21;101807.97;;;-2.32;89.76
19676;BME280;39539;52.202;9.876;2022-12-18T14:41:48;101824.41;;;-2.31;90.67
19676;BME280;39539;52.202;9.876;2022-12-18T14:44:15;101813.00;;;-2.43;91.20
19676;BME280;39539;52.202;9.876;2022-12-18T14:46:44;101809.19;;;-2.52;92.34
19676;BME280;39539;52.202;9.876;2022-12-18T14:49:42;101826.28;;;-2.62;92.79
19676;BME280;39539;52.202;9.876;2022-12-18T14:52:35;101826.22;;;-2.60;91.96
19676;BME280;39539;52.202;9.876;2022-12-18T14:55:00;101811.81;;;-2.66;91.64
19676;BME280;39539;52.202;9.876;2022-12-18T14:57:36;101813.34;;;-2.63;91.41
19676;BME280;39539;52.202;9.876;2022-12-18T15:00:14;101810.75;;;-2.63;90.39
19676;BME280;39539;52.202;9.876;2022-12-18T15:02:53;101776.19;;;-2.80;89.22
19676;BME280;39539;52.202;9.876;2022-12-18T15:05:28;101800.06;;;-2.59;89.52
19676;BME280;39539;52.202;9.876;2022-12-18T15:08:02;101793.84;;;-2.56;89.12
19676;BME280;39539;52.202;9.876;2022-12-18T15:10:34;101805.00;;;-2.54;89.12
19676;BME280;39539;52.202;9.876;2022-12-18T15:20:39;101807.22;;;-2.48;88.19
19676;BME280;39539;52.202;9.876;2022-12-18T15:26:04;101779.63;;;-2.65;88.99
19676;BME280;39539;52.202;9.876;2022-12-18T15:33:43;101785.28;;;-2.73;91.56
19676;BME280;39539;52.202;9.876;2022-12-18T15:36:16;101778.69;;;-2.78;92.51
19676;BME280;39539;52.202;9.876;2022-12-18T15:38:52;101777.69;;;-2.76;92.72
19676;BME280;39539;52.202;9.876;2022-12-18T15:41:20;101786.44;;;-2.77;93.09
19676;BME280;39539;52.202;9.876;2022-12-18T15:43:49;101775.44;;;-2.82;93.01
19676;BME280;39539;52.202;9.876;2022-12-18T15:46:18;101777.22;;;-2.82;93.62
19676;BME280;39539;52.202;9.876;2022-12-18T15:48:51;101781.59;;;-2.83;93.75
19676;BME280;39539;52.202;9.876;2022-12-18T15:51:33;101776.75;;;-2.89;94.12
19676;BME280;39539;52.202;9.876;2022-12-18T15:54:02;101768.59;;;-2.97;94.59
19676;BME280;39539;52.202;9.876;2022-12-18T15:56:29;101752.78;;;-3.08;95.37
19676;BME280;39539;52.202;9.876;2022-12-18T15:59:18;101752.69;;;-3.07;96.19
19676;BME280;39539;52.202;9.876;2022-12-18T16:01:51;101764.09;;;-3.09;96.23
19676;BME280;39539;52.202;9.876;2022-12-18T16:04:19;101744.88;;;-3.07;95.82
19676;BME280;39539;52.202;9.876;2022-12-18T16:06:46;101751.66;;;-3.04;96.07
19676;BME280;39539;52.202;9.876;2022-12-18T16:09:11;101735.88;;;-3.01;96.16
19676;BME280;39539;52.202;9.876;2022-12-18T16:11:39;101734.78;;;-2.97;96.19
19676;BME280;39539;52.202;9.876;2022-12-18T16:14:20;101734.28;;;-3.04;95.54
19676;BME280;39539;52.202;9.876;2022-12-18T16:16:49;101755.56;;;-2.97;96.18
19676;BME280;39539;52.202;9.876;2022-12-18T16:19:15;101747.59;;;-2.94;96.15
19676;BME280;39539;52.202;9.876;2022-12-18T16:21:42;101744.06;;;-2.93;95.03
19676;BME280;39539;52.202;9.876;2022-12-18T16:24:28;101750.19;;;-2.94;95.86
19676;BME280;39539;52.202;9.876;2022-12-18T16:26:56;101749.50;;;-2.98;95.58
19676;BME280;39539;52.202;9.876;2022-12-18T16:29:23;101733.84;;;-2.96;95.24
19676;BME280;39539;52.202;9.876;2022-12-18T16:31:56;101741.63;;;-2.82;93.61
19676;BME280;39539;52.202;9.876;2022-12-18T16:34:28;101722.47;;;-2.81;93.84
19676;BME280;39539;52.202;9.876;2022-12-18T16:36:55;101723.06;;;-2.90;94.31
19676;BME280;39539;52.202;9.876;2022-12-18T16:39:21;101705.03;;;-2.93;94.39
19676;BME280;39539;52.202;9.876;2022-12-18T16:41:47;101724.19;;;-2.80;93.73
19676;BME280;39539;52.202;9.876;2022-12-18T16:44:14;101717.66;;;-2.73;91.63